Dalton, MO (65246)

1:12 AM CST on January 26, 2015 (GMT -0600)
Barlow Back Yard | Change Station
CLOSE
Current Station
Personal Weather Station
Location: Hale, MO
Elevation: 755 ft
Nearby Weather Stations

Elev 755 ft 39.59 °N, 93.30 °W | Updated 3 minutes ago

Overcast
Overcast
32.4 °F
Feels Like 32 °F
N
0.0
Wind Variable Wind from West

Today
High -- | Low -- °F
--% Chance of Precip.
Yesterday
High -- | Low -- °F
Precip. -- in
7:24 AM 5:25 PM
Waxing Crescent, 40% visible
Pressure 30.09 in
Visibility 10.0 miles
Clouds Overcast 1300 ft
Windchill 32 °F
Dew Point 28 °F
Humidity 83%
Rainfall 0.00 in
Snow Depth Not available.
UV 0 out of 12
Pollen .10 out of 12
Air Quality Not available.
Flu Activity Not available.
METAR KVER 260655Z AUTO 34003KT 10SM OVC013 00/M02 A3009 RMK AO2 T00001019

More Conditions Fewer Conditions

Pressure 30.09 in
Visibility 10.0 miles
Clouds Overcast 1300 ft
Windchill 32 °F
Dew Point 28 °F
Humidity 83%
Rainfall 0.00 in
Snow Depth Not available.
UV 0 out of 12
Pollen .10 out of 12
Air Quality Not available.
Flu Activity Not available.
METAR KVER 260655Z AUTO 34003KT 10SM OVC013 00/M02 A3009 RMK AO2 T00001019

More Conditions Fewer Conditions

10-Day Weather Forecast

Almanac

Astronomy

Jan. 26, 2015 Rise Set
Actual Time
Civil Twilight
Nautical Twilight
Astronomical Twilight
Moon
Length of Visible Light
Length of Day
Tomorrow will be .
, % of the Moon is Illuminated

Today's Extremes

State Highs State Lows

Community

WunderPhotos

Upload Photos

1,790,155 photos uploaded!

WunderBlogs® & News

Nearby

Air Quality

  Air Quality AQ Index Pollutant
Not available.

Snow Depth

Station Depth Elevation

Earthquake Activity

City Distance Mag. Time & Date
Minimum magnitude displayed is 2.5.

Coastal Water Temperatures

Place Temperature

Nearby Weather Stations